Data for 03/13/2015

Time Sea-Level Adjusted Pressure Absolute Pressure Temperature Relative Humidity Dew Point   
(mb) (inHg) (mb) (inHg) (C) (F) (%) (C) (F)
00:05 1029 30.39 858 25.34 3.6 38.5 58 -4 24.8
00:10 1029 30.39 858 25.34 3.5 38.4 57 -4.1 24.5
00:15 1029 30.39 858 25.34 3.7 38.6 57 -4 24.7
00:20 1029 30.39 858 25.34 3.4 38.1 58 -4 24.8
00:25 1029 30.39 858 25.34 3.3 38 59 -3.9 24.9
00:30 1029 30.39 858 25.34 3.5 38.3 57 -4.1 24.6
00:35 1029 30.39 858 25.34 3.5 38.4 58 -4 24.8
00:40 1029 30.39 858 25.34 3.7 38.7 57 -3.9 24.9
00:45 1029 30.39 858 25.34 3.8 38.8 58 -3.8 25.2
00:50 1029 30.39 858 25.34 3.4 38.1 60 -3.7 25.4
00:55 1029 30.39 858 25.34 3.4 38.1 58 -4.1 24.6
01:00 1029 30.39 858 25.34 3.5 38.3 58 -4 24.9
01:05 1029 30.39 858 25.34 3 37.5 59 -4.2 24.4
01:10 1029 30.39 858 25.34 3 37.4 61 -3.8 25.1
01:15 1029 30.39 858 25.34 2.7 36.9 62 -3.8 25.2
01:20 1029 30.39 858 25.34 2.8 37 61 -4.1 24.7
01:25 1029 30.39 859 25.37 2.5 36.5 62 -4.1 24.7
01:30 1029 30.39 859 25.37 2.2 35.9 62 -4.3 24.3
01:35 1029 30.39 859 25.37 2.2 36 64 -4 24.8
01:40 1029 30.39 859 25.37 2.4 36.4 61 -4.3 24.3
01:45 1029 30.39 859 25.37 2.5 36.5 61 -4.2 24.5
01:50 1029 30.39 859 25.37 1.9 35.4 64 -4.2 24.4
01:55 1029 30.39 859 25.37 1.5 34.8 65 -4.3 24.2
02:00 1029 30.39 859 25.37 1.5 34.8 64 -4.5 24
02:05 1029 30.39 859 25.37 1.2 34.2 67 -4.2 24.4
02:10 1030 30.42 859 25.37 0.3 32.6 70 -4.5 23.9
02:15 1030 30.42 859 25.37 0.6 33.1 67 -4.8 23.4
02:20 1030 30.42 859 25.37 1.2 34.1 66 -4.6 23.8
02:25 1030 30.42 859 25.37 1.4 34.5 65 -4.4 24.1
02:30 1030 30.42 859 25.37 1.3 34.4 66 -4.4 24.2
02:35 1030 30.42 859 25.37 1.4 34.5 65 -4.5 23.8
02:40 1030 30.42 859 25.37 1.5 34.6 65 -4.5 24
02:45 1030 30.42 859 25.37 1.4 34.5 66 -4.3 24.2
02:50 1029 30.39 859 25.37 1.4 34.5 66 -4.4 24.1
02:55 1029 30.39 859 25.37 1.4 34.5 66 -4.3 24.2
03:00 1029 30.39 859 25.37 1.3 34.4 66 -4.4 24
03:05 1030 30.42 859 25.37 1.3 34.4 66 -4.4 24.1
03:10 1029 30.39 859 25.37 1.2 34.1 67 -4.4 24.1
03:15 1029 30.39 859 25.37 1 33.7 67 -4.5 24
03:20 1030 30.42 859 25.37 0.9 33.6 67 -4.5 24
03:25 1030 30.42 859 25.37 0.7 33.3 69 -4.4 24.1
03:30 1030 30.42 859 25.37 0.8 33.4 68 -4.5 23.9
03:35 1030 30.42 859 25.37 0.9 33.5 68 -4.5 24
03:40 1030 30.42 859 25.37 0.9 33.6 68 -4.5 24
03:45 1030 30.42 859 25.37 0.8 33.5 68 -4.5 23.9
03:50 1030 30.42 859 25.37 0.8 33.4 67 -4.7 23.6
03:55 1030 30.42 859 25.37 1.1 33.9 66 -4.7 23.6
04:00 1030 30.42 859 25.37 1.2 34.2 65 -4.7 23.5
04:05 1030 30.42 859 25.37 1.2 34.2 66 -4.5 23.9
04:10 1030 30.42 859 25.37 1.1 33.9 66 -4.7 23.6
04:15 1030 30.42 859 25.37 1.2 34.2 64 -4.8 23.4
04:20 1030 30.42 859 25.37 1.2 34.2 65 -4.6 23.6
04:25 1030 30.42 859 25.37 1.2 34.1 65 -4.6 23.8
04:30 1030 30.42 859 25.37 1.2 34.1 65 -4.7 23.6
04:35 1030 30.42 859 25.37 1.3 34.3 65 -4.6 23.8
04:40 1030 30.42 859 25.37 1.4 34.5 64 -4.6 23.8
04:45 1030 30.42 859 25.37 1.5 34.6 64 -4.6 23.7
04:50 1030 30.42 859 25.37 1.5 34.7 64 -4.5 23.9
04:55 1030 30.42 859 25.37 1.4 34.6 64 -4.5 23.8
05:00 1030 30.42 859 25.37 1.4 34.6 64 -4.6 23.8
05:05 1030 30.42 859 25.37 1.3 34.4 65 -4.5 23.9
05:10 1030 30.42 860 25.4 1.1 34 66 -4.6 23.7
05:15 1030 30.42 860 25.4 1.2 34.2 66 -4.4 24.1
05:20 1030 30.42 860 25.4 1.3 34.4 65 -4.5 23.9
05:25 1030 30.42 860 25.4 1.3 34.3 67 -4.1 24.6
05:30 1030 30.42 860 25.4 1.1 33.9 66 -4.6 23.8
05:35 1030 30.42 860 25.4 0.9 33.7 68 -4.4 24.1
05:40 1030 30.42 860 25.4 0.7 33.3 67 -4.6 23.6
05:45 1030 30.42 860 25.4 0.6 33.1 68 -4.7 23.6
05:50 1030 30.42 860 25.4 0.7 33.3 68 -4.6 23.7
05:55 1030 30.42 860 25.4 0.6 33.1 68 -4.7 23.5
06:00 1030 30.42 860 25.4 0.5 33 68 -4.7 23.6
06:05 1031 30.45 860 25.4 0.4 32.6 70 -4.5 23.8
06:10 1031 30.45 860 25.4 0.7 33.2 68 -4.6 23.7
06:15 1031 30.45 860 25.4 0.5 32.9 68 -4.7 23.5
06:20 1031 30.45 860 25.4 0.1 32.1 70 -4.8 23.4
06:25 1031 30.45 860 25.4 -0.3 31.5 71 -5 23
06:30 1031 30.45 860 25.4 -0.5 31.1 72 -5 23
06:35 1031 30.45 860 25.4 -0.5 31 72 -5 23.1
06:40 1031 30.45 860 25.4 -0.7 30.8 72 -5.1 22.9
06:45 1031 30.45 860 25.4 -0.4 31.3 70 -5.1 22.8
06:50 1031 30.45 860 25.4 -0 32 69 -5 23
06:55 1031 30.45 860 25.4 0.2 32.4 67 -5.1 22.8
07:00 1031 30.45 860 25.4 0.7 33.2 66 -4.9 23.2
07:05 1031 30.45 860 25.4 0.5 32.8 67 -4.9 23.1
07:10 1031 30.45 860 25.4 0.5 32.8 67 -5 23
07:15 1031 30.45 860 25.4 0.6 33.1 66 -5 23
07:20 1031 30.45 860 25.4 0.7 33.2 66 -5 23.1
07:25 1031 30.45 860 25.4 0.8 33.5 65 -5.1 22.9
07:30 1031 30.45 860 25.4 1.2 34.1 64 -4.9 23.1
07:35 1030 30.42 860 25.4 1.2 34.2 63 -4.9 23.1
07:40 1030 30.42 860 25.4 1.3 34.3 64 -4.8 23.3
07:45 1030 30.42 860 25.4 1.3 34.3 64 -4.9 23.2
07:50 1030 30.42 860 25.4 1.5 34.7 63 -4.7 23.5
07:55 1030 30.42 860 25.4 1.9 35.5 61 -4.8 23.4
08:00 1030 30.42 860 25.4 2.4 36.4 60 -4.7 23.6
08:05 1030 30.42 860 25.4 3 37.3 58 -4.5 23.8
08:10 1030 30.42 860 25.4 3.3 37.9 58 -4.3 24.3
08:15 1030 30.42 860 25.4 3.2 37.8 57 -4.4 24.1
08:20 1030 30.42 860 25.4 3.4 38.2 58 -4.1 24.6
08:25 1030 30.42 860 25.4 3.6 38.4 56 -4.3 24.2
08:30 1030 30.42 860 25.4 3.9 39 55 -4.2 24.4
08:35 1030 30.42 860 25.4 4.5 40.2 53 -4.3 24.2
08:40 1031 30.45 860 25.4 5.1 41.2 51 -4.1 24.6
08:45 1031 30.45 860 25.4 5.6 42.2 48 -4.6 23.8
08:50 1031 30.45 860 25.4 6.1 42.9 47 -4.3 24.3
08:55 1031 30.45 860 25.4 6.3 43.3 45 -4.6 23.6
09:00 1031 30.45 860 25.4 6.5 43.7 46 -4.3 24.3
09:05 1031 30.45 860 25.4 6.8 44.2 46 -4 24.8
09:10 1031 30.45 860 25.4 6.9 44.5 45 -4.3 24.3
09:15 1031 30.45 860 25.4 7.5 45.4 44 -3.9 25
09:20 1031 30.45 860 25.4 7.6 45.6 44 -3.8 25.1
09:25 1031 30.45 860 25.4 7.6 45.6 44 -3.9 25
09:30 1031 30.45 860 25.4 7.5 45.5 44 -4 24.7
09:35 1031 30.45 860 25.4 7.3 45.1 44 -4.3 24.3
09:40 1031 30.45 860 25.4 7.6 45.7 43 -4.1 24.7
09:45 1031 30.45 860 25.4 7.2 44.9 43 -4.5 23.9
09:50 1031 30.45 860 25.4 7.9 46.2 42 -4.3 24.2
09:55 1031 30.45 860 25.4 8.6 47.5 39 -4.4 24.1
10:00 1031 30.45 860 25.4 9.1 48.4 38 -4.5 23.9
10:05 1031 30.45 860 25.4 9.5 49.2 36 -4.7 23.5
10:10 1031 30.45 860 25.4 9.5 49.2 37 -4.4 24.1
10:15 1031 30.45 860 25.4 9.3 48.8 37 -4.5 23.9
10:20 1031 30.45 860 25.4 9.8 49.6 37 -4.3 24.3
10:25 1030 30.42 860 25.4 9.5 49.1 37 -4.4 24.1
10:30 1030 30.42 860 25.4 10.2 50.4 36 -4 24.7
10:35 1030 30.42 860 25.4 10.3 50.5 37 -3.7 25.4
10:40 1030 30.42 860 25.4 10.1 50.2 36 -4.2 24.4
10:45 1030 30.42 860 25.4 11.1 52 34 -4 24.9
10:50 1030 30.42 859 25.37 11.5 52.7 34 -3.6 25.5
10:55 1030 30.42 859 25.37 11.2 52.1 36 -3.4 25.8
11:00 1030 30.42 859 25.37 11.2 52.2 34 -4.2 24.4
11:05 1030 30.42 859 25.37 11.8 53.2 33 -3.8 25.2
11:10 1030 30.42 859 25.37 11.5 52.7 34 -3.9 25
11:15 1030 30.42 859 25.37 11 51.9 34 -4.4 24.1
11:20 1030 30.42 859 25.37 10.3 50.5 34 -4.7 23.6
11:25 1030 30.42 859 25.37 10.5 51 33 -5.2 22.7
11:30 1030 30.42 859 25.37 12 53.5 30 -4.9 23.2
11:35 1030 30.42 859 25.37 11.3 52.3 32 -4.7 23.5
11:40 1030 30.42 859 25.37 11.9 53.5 31 -4.5 23.8
11:45 1030 30.42 859 25.37 11.7 53.1 30 -5.2 22.6
11:50 1029 30.39 859 25.37 12.7 54.9 29 -4.6 23.6
11:55 1029 30.39 858 25.34 12.5 54.5 28 -5.4 22.3
12:00 1029 30.39 858 25.34 12.2 54 28 -5.8 21.5
12:05 1029 30.39 858 25.34 12.7 54.9 27 -5.8 21.6
12:10 1029 30.39 858 25.34 12.4 54.3 28 -5.7 21.7
12:15 1029 30.39 858 25.34 12.2 54 28 -5.9 21.3
12:20 1029 30.39 858 25.34 13.4 56 27 -5.4 22.4
12:25 1029 30.39 858 25.34 12.9 55.1 26 -5.9 21.3
12:30 1029 30.39 858 25.34 13.3 55.9 24 -7.1 19.3
12:35 1029 30.39 858 25.34 14.5 58.1 22 -7.1 19.3
12:40 1029 30.39 858 25.34 14.8 58.6 23 -6.3 20.7
12:45 1029 30.39 858 25.34 14.7 58.5 21 -7.1 19.3
12:50 1028 30.36 858 25.34 15.1 59.2 21 -7.3 18.8
12:55 1028 30.36 858 25.34 15.3 59.6 20 -7.3 18.8
13:00 1028 30.36 857 25.31 15.2 59.3 20 -7.5 18.4
13:05 1028 30.36 857 25.31 15 59 22 -6.7 19.9
13:10 1028 30.36 857 25.31 15.4 59.7 20 -7.5 18.5
13:15 1028 30.36 857 25.31 15.6 60 20 -7.3 18.9
13:20 1028 30.36 857 25.31 15.9 60.6 19 -7.5 18.5
13:25 1028 30.36 857 25.31 15.6 60.1 19 -8 17.6
13:30 1028 30.36 857 25.31 16 60.8 17 -9.2 15.5
13:35 1028 30.36 857 25.31 16.1 61 17 -8.9 16
13:40 1028 30.36 857 25.31 15.6 60.1 17 -9.2 15.4
13:45 1028 30.36 857 25.31 15.7 60.3 17 -9.6 14.7
13:50 1028 30.36 857 25.31 15.8 60.5 17 -9.2 15.5
13:55 1028 30.36 857 25.31 16.1 61 18 -8.4 16.9
14:00 1028 30.36 857 25.31 16.5 61.6 17 -8.8 16.2
14:05 1028 30.36 857 25.31 16.5 61.8 17 -8.6 16.6
14:10 1028 30.36 857 25.31 16.4 61.5 15 -10.1 13.9
14:15 1028 30.36 857 25.31 16.7 62 15 -10.4 13.3
14:20 1028 30.36 857 25.31 15.3 59.6 17 -9.6 14.8
14:25 1028 30.36 857 25.31 15.8 60.4 18 -8.3 17
14:30 1028 30.36 857 25.31 16.5 61.8 16 -9.6 14.8
14:35 1027 30.33 857 25.31 16.2 61.2 15 -10.1 13.8
14:40 1027 30.33 857 25.31 16.3 61.4 15 -10 14
14:45 1027 30.33 857 25.31 16.4 61.5 15 -10 14.1
14:50 1027 30.33 857 25.31 16.5 61.6 15 -10.6 12.9
14:55 1027 30.33 857 25.31 16.6 61.9 15 -10.4 13.3
15:00 1027 30.33 856 25.28 16.3 61.4 18 -8.2 17.2
15:05 1027 30.33 856 25.28 16.9 62.4 15 -10.1 13.8
15:10 1027 30.33 856 25.28 16.6 62 16 -9.2 15.4
15:15 1027 30.33 856 25.28 15.6 60 17 -9.3 15.3
15:20 1027 30.33 856 25.28 16 60.7 16 -10 14
15:25 1027 30.33 856 25.28 16 60.8 17 -8.6 16.5
15:30 1027 30.33 856 25.28 16.1 61 15 -10.2 13.6
15:35 1027 30.33 856 25.28 16.2 61.1 15 -10.3 13.5
15:40 1027 30.33 856 25.28 15.3 59.6 17 -9.6 14.7
15:45 1027 30.33 856 25.28 15.9 60.7 15 -10.4 13.3
15:50 1027 30.33 856 25.28 15.6 60 17 -9.5 14.9
15:55 1027 30.33 856 25.28 15 59 16 -10.6 13
16:00 1026 30.3 856 25.28 15.3 59.5 15 -10.9 12.3
16:05 1026 30.3 856 25.28 15.3 59.6 15 -11.1 12.1
16:10 1026 30.3 856 25.28 15.3 59.5 15 -11.1 12
16:15 1026 30.3 856 25.28 15.8 60.4 15 -11.2 11.9
16:20 1026 30.3 855 25.25 16.5 61.7 14 -10.9 12.3
16:25 1026 30.3 855 25.25 16.5 61.6 14 -11.2 11.8
16:30 1026 30.3 855 25.25 16.5 61.6 14 -11.1 12.1
16:35 1026 30.3 855 25.25 16.5 61.8 14 -11 12.2
16:40 1026 30.3 855 25.25 16.7 62.1 14 -11.1 12
16:45 1026 30.3 855 25.25 16 60.8 15 -11 12.2
16:50 1026 30.3 855 25.25 15.1 59.1 15 -11.5 11.3
16:55 1026 30.3 855 25.25 15.3 59.5 15 -11.6 11.2
17:00 1026 30.3 855 25.25 15.6 60 14 -11.8 10.8
17:05 1026 30.3 855 25.25 16.1 60.9 14 -11.6 11.2
17:10 1026 30.3 855 25.25 15.8 60.5 14 -11.8 10.7
17:15 1026 30.3 855 25.25 15.6 60.1 14 -11.9 10.5
17:20 1026 30.3 855 25.25 15.7 60.3 14 -12 10.4
17:25 1026 30.3 855 25.25 15.4 59.7 14 -12.2 10
17:30 1026 30.3 855 25.25 15.6 60.1 14 -12.2 10.1
17:35 1026 30.3 855 25.25 15.7 60.3 12 -13.3 8.1
17:40 1026 30.3 855 25.25 15.1 59.2 12 -13.7 7.3
17:45 1026 30.3 855 25.25 15 58.9 13 -13.6 7.5
17:50 1026 30.3 855 25.25 15.1 59.1 13 -13.6 7.6
17:55 1026 30.3 855 25.25 15 59 13 -12.8 8.9
18:00 1026 30.3 855 25.25 14.8 58.6 14 -12.8 9
18:05 1026 30.3 855 25.25 14.4 57.9 14 -12.6 9.3
18:10 1026 30.3 855 25.25 14.1 57.4 14 -12.9 8.8
18:15 1026 30.3 855 25.25 13.8 56.9 14 -13 8.6
18:20 1026 30.3 855 25.25 13.6 56.6 15 -13 8.7
18:25 1026 30.3 855 25.25 13.5 56.2 15 -13 8.6
18:30 1025 30.27 855 25.25 13.6 56.5 14 -13.1 8.4
18:35 1025 30.27 855 25.25 13.5 56.3 14 -13.1 8.4
18:40 1025 30.27 854 25.22 13 55.4 19 -10.1 13.9
18:45 1025 30.27 855 25.25 11.9 53.4 25 -7.5 18.5
18:50 1025 30.27 854 25.22 10.9 51.5 27 -7.3 18.8
18:55 1025 30.27 854 25.22 10.5 50.9 28 -7.4 18.7
19:00 1025 30.27 854 25.22 10.1 50.2 29 -7.2 19.1
19:05 1025 30.27 854 25.22 9.5 49.1 29 -7.5 18.5
19:10 1025 30.27 854 25.22 9.4 48.9 30 -7.4 18.7
19:15 1025 30.27 854 25.22 8.9 47.9 32 -7.1 19.2
19:20 1025 30.27 854 25.22 8.4 47.1 32 -7.2 19
19:25 1025 30.27 854 25.22 8 46.5 33 -7.2 19
19:30 1025 30.27 854 25.22 7.8 46.1 31 -8.1 17.4
19:35 1025 30.27 854 25.22 8.5 47.2 32 -7.2 19
19:40 1025 30.27 854 25.22 8.3 47 33 -6.9 19.6
19:45 1025 30.27 854 25.22 7.8 46.1 34 -6.9 19.5
19:50 1025 30.27 854 25.22 7.7 45.9 34 -7.2 19
19:55 1025 30.27 854 25.22 7.7 45.9 34 -7.2 19.1
20:00 1025 30.27 854 25.22 7.8 46 33 -7.4 18.8
20:05 1025 30.27 854 25.22 7.9 46.3 33 -7.2 19
20:10 1025 30.27 854 25.22 7.9 46.2 33 -7.3 18.9
20:15 1025 30.27 854 25.22 8 46.4 33 -7.4 18.6
20:20 1025 30.27 854 25.22 8.1 46.6 32 -7.6 18.4
20:25 1025 30.27 854 25.22 8.2 46.7 33 -7.2 19
20:30 1025 30.27 854 25.22 7.9 46.3 33 -7.5 18.5
20:35 1025 30.27 854 25.22 8 46.5 33 -7.4 18.7
20:40 1025 30.27 854 25.22 8 46.3 32 -7.6 18.4
20:45 1025 30.27 854 25.22 7.9 46.2 33 -7.5 18.5
20:50 1025 30.27 854 25.22 7.8 46 33 -7.6 18.3
20:55 1025 30.27 854 25.22 7.8 46.1 33 -7.5 18.6
21:00 1025 30.27 854 25.22 7.8 46.1 33 -7.4 18.6
21:05 1025 30.27 854 25.22 7.8 46 34 -7.2 19
21:10 1025 30.27 854 25.22 7.5 45.4 35 -7 19.3
21:15 1025 30.27 854 25.22 7.3 45.1 34 -7.4 18.7
21:20 1025 30.27 854 25.22 7.7 45.8 34 -7.4 18.8
21:25 1025 30.27 854 25.22 7.6 45.7 35 -6.8 19.7
21:30 1025 30.27 854 25.22 7.2 45 35 -7.3 18.9
21:35 1025 30.27 854 25.22 7.4 45.3 35 -7.3 18.9
21:40 1025 30.27 854 25.22 6.9 44.5 36 -7.1 19.3
21:45 1025 30.27 854 25.22 6.6 43.9 37 -7.1 19.2
21:50 1025 30.27 854 25.22 6.3 43.4 38 -7.1 19.1
21:55 1025 30.27 854 25.22 6.1 43 37 -7.5 18.5
22:00 1025 30.27 854 25.22 6.2 43.1 37 -7.5 18.5
22:05 1025 30.27 854 25.22 6.3 43.4 36 -7.7 18.1
22:10 1024 30.24 854 25.22 6.3 43.4 37 -7.2 19.1
22:15 1024 30.24 854 25.22 6.1 42.9 36 -7.9 17.7
22:20 1024 30.24 853 25.19 6.6 43.9 35 -7.9 17.7
22:25 1024 30.24 853 25.19 6.6 44 35 -7.8 18
22:30 1024 30.24 853 25.19 6.5 43.7 35 -7.7 18.1
22:35 1024 30.24 853 25.19 6.2 43.2 35 -8 17.6
22:40 1024 30.24 853 25.19 6.2 43.1 34 -8.5 16.7
22:45 1024 30.24 853 25.19 6.4 43.5 33 -8.7 16.3
22:50 1024 30.24 853 25.19 6.6 43.9 33 -8.5 16.8
22:55 1024 30.24 853 25.19 7 44.6 32 -8.5 16.7
23:00 1024 30.24 853 25.19 7 44.7 32 -8.7 16.4
23:05 1024 30.24 853 25.19 7.1 44.8 32 -8.6 16.4
23:10 1024 30.24 853 25.19 7.1 44.7 31 -8.9 16
23:15 1024 30.24 853 25.19 7.3 45.1 31 -8.9 16
23:20 1024 30.24 853 25.19 7.3 45.1 31 -8.9 15.9
23:25 1024 30.24 853 25.19 7.3 45.1 30 -9 15.8
23:30 1024 30.24 853 25.19 7.3 45.1 31 -8.9 15.9
23:35 1024 30.24 853 25.19 7.1 44.8 31 -8.7 16.3
23:40 1024 30.24 853 25.19 6.9 44.5 31 -8.8 16.1
23:45 1024 30.24 853 25.19 6.8 44.3 31 -9.1 15.7
23:50 1024 30.24 853 25.19 6.9 44.5 31 -9.2 15.4
23:55 1024 30.24 853 25.19 7 44.6 30 -9.3 15.3
24:00 1024 30.24 853 25.19 7.1 44.7 31 -9.1 15.6